createdAt,value
2023-03-06T00:00:48.083Z,94303.00
2023-03-06T00:04:48.234Z,94305.00
2023-03-06T00:08:48.372Z,94301.00
2023-03-06T00:12:48.493Z,94301.00
2023-03-06T00:16:48.569Z,94301.00
2023-03-06T00:20:48.670Z,94299.00
2023-03-06T00:24:48.847Z,94297.00
2023-03-06T00:28:48.977Z,94297.00
2023-03-06T00:32:49.182Z,94293.00
2023-03-06T00:36:49.196Z,94293.00
2023-03-06T00:40:49.336Z,94289.00
2023-03-06T00:44:49.480Z,94284.00
2023-03-06T00:48:49.613Z,94282.00
2023-03-06T00:52:49.737Z,94278.00
2023-03-06T00:56:49.930Z,94272.00
2023-03-06T01:00:50.108Z,94270.00
2023-03-06T01:04:50.207Z,94268.00
2023-03-06T01:08:50.320Z,94260.00
2023-03-06T01:12:50.448Z,94258.00
2023-03-06T01:16:50.638Z,94248.00
2023-03-06T01:20:50.733Z,94242.00
2023-03-06T01:24:50.866Z,94239.00
2023-03-06T01:28:51.034Z,94235.00
2023-03-06T01:32:51.167Z,94233.00
2023-03-06T01:36:51.339Z,94225.00
2023-03-06T01:40:51.461Z,94225.00
2023-03-06T01:44:51.618Z,94223.00
2023-03-06T01:48:51.792Z,94217.00
2023-03-06T01:52:51.942Z,94209.00
2023-03-06T01:56:52.054Z,94203.00
2023-03-06T02:00:52.267Z,94195.00
2023-03-06T02:04:52.432Z,94192.00
2023-03-06T02:08:52.616Z,94186.00
2023-03-06T02:12:52.783Z,94180.00
2023-03-06T02:16:53.052Z,94180.00
2023-03-06T02:20:53.092Z,94178.00
2023-03-06T02:24:53.290Z,94172.00
2023-03-06T02:28:53.488Z,94168.00
2023-03-06T02:32:53.675Z,94164.00
2023-03-06T02:36:53.877Z,94158.00
2023-03-06T02:40:54.044Z,94156.00
2023-03-06T02:44:54.234Z,94148.00
2023-03-06T02:48:54.403Z,94139.00
2023-03-06T02:52:54.638Z,94135.00
2023-03-06T02:56:54.848Z,94127.00
2023-03-06T03:00:55.062Z,94121.00
2023-03-06T03:04:55.340Z,94115.00
2023-03-06T03:08:55.501Z,94111.00
2023-03-06T03:12:55.716Z,94103.00
2023-03-06T03:16:55.912Z,94103.00
2023-03-06T03:20:56.095Z,94101.00
2023-03-06T03:24:56.374Z,94090.00
2023-03-06T03:28:56.527Z,94088.00
2023-03-06T03:32:56.805Z,94084.00
2023-03-06T03:36:56.957Z,94080.00
2023-03-06T03:40:57.199Z,94074.00
2023-03-06T03:44:57.393Z,94064.00
2023-03-06T03:48:57.592Z,94062.00
2023-03-06T03:52:57.857Z,94054.00
2023-03-06T03:56:58.052Z,94048.00
2023-03-06T04:00:58.249Z,94046.00
2023-03-06T04:04:58.556Z,94041.00
2023-03-06T04:08:58.702Z,94031.00
2023-03-06T04:12:58.915Z,94029.00
2023-03-06T04:16:59.110Z,94029.00
2023-03-06T04:20:59.402Z,94023.00
2023-03-06T04:24:59.621Z,94013.00
2023-03-06T04:28:59.845Z,94013.00
2023-03-06T04:33:00.035Z,94011.00
2023-03-06T04:37:00.262Z,94007.00
2023-03-06T04:41:00.493Z,94001.00
2023-03-06T04:45:00.750Z,93999.00
2023-03-06T04:49:00.954Z,94003.00
2023-03-06T04:53:01.189Z,94003.00
2023-03-06T04:57:01.478Z,93998.00
2023-03-06T05:01:01.730Z,93999.00
2023-03-06T05:05:01.947Z,93994.00
2023-03-06T05:09:02.220Z,93990.00
2023-03-06T05:13:02.440Z,93986.00
2023-03-06T05:17:02.705Z,93982.00
2023-03-06T05:21:02.931Z,93978.00
2023-03-06T05:25:03.199Z,93978.00
2023-03-06T05:29:03.475Z,93976.00
2023-03-06T05:33:03.690Z,93978.00
2023-03-06T05:37:03.940Z,93978.00
2023-03-06T05:41:04.174Z,93976.00
2023-03-06T05:45:04.444Z,93980.00
2023-03-06T05:49:04.732Z,93980.00
2023-03-06T05:53:05.006Z,93984.00
2023-03-06T05:57:05.247Z,93986.00
2023-03-06T06:01:05.497Z,93984.00
2023-03-06T06:05:05.785Z,93986.00
2023-03-06T06:09:06.060Z,93986.00
2023-03-06T06:13:06.250Z,93988.00
2023-03-06T06:17:06.542Z,93994.00
2023-03-06T06:21:06.798Z,93990.00
2023-03-06T06:25:07.075Z,93990.00
2023-03-06T06:29:07.288Z,93994.00
2023-03-06T06:33:07.544Z,93998.00
2023-03-06T06:37:07.828Z,93994.00
2023-03-06T06:41:39.324Z,93994.00
2023-03-06T06:45:09.076Z,93992.00
2023-03-06T06:49:08.364Z,93996.00
2023-03-06T06:53:08.852Z,93996.00
2023-03-06T06:57:08.823Z,93996.00
2023-03-06T07:01:08.698Z,93998.00
2023-03-06T07:05:08.859Z,94001.00
2023-03-06T07:09:08.831Z,94001.00
2023-03-06T07:13:08.875Z,93999.00
2023-03-06T07:17:08.798Z,93999.00
2023-03-06T07:21:08.823Z,93999.00
2023-03-06T07:25:08.934Z,94003.00
2023-03-06T07:29:09.390Z,94009.00
2023-03-06T07:33:09.053Z,94015.00
2023-03-06T07:37:09.388Z,94007.00
2023-03-06T07:41:08.946Z,94017.00
2023-03-06T07:45:09.379Z,94023.00
2023-03-06T07:49:08.796Z,94021.00
2023-03-06T07:53:10.773Z,94021.00
2023-03-06T07:57:08.869Z,94027.00
2023-03-06T08:01:08.749Z,94023.00
2023-03-06T08:05:08.970Z,94023.00
2023-03-06T08:09:08.928Z,94025.00
2023-03-06T08:13:09.399Z,94021.00
2023-03-06T08:17:08.968Z,94021.00
2023-03-06T08:21:08.986Z,94023.00
2023-03-06T08:25:09.430Z,94017.00
2023-03-06T08:29:08.954Z,94021.00
2023-03-06T08:33:08.953Z,94021.00
2023-03-06T08:37:08.999Z,94019.00
2023-03-06T08:41:09.445Z,94017.00
2023-03-06T08:45:09.400Z,94017.00
2023-03-06T08:49:09.405Z,94021.00
2023-03-06T08:53:09.132Z,94027.00
2023-03-06T08:57:09.317Z,94025.00
2023-03-06T09:01:09.893Z,94023.00
2023-03-06T09:05:09.429Z,94025.00
2023-03-06T09:09:09.399Z,94023.00
2023-03-06T09:13:09.482Z,94021.00
2023-03-06T09:17:09.345Z,94019.00
2023-03-06T09:21:09.328Z,94013.00
2023-03-06T09:25:09.331Z,94017.00
2023-03-06T09:29:09.335Z,94013.00
2023-03-06T09:33:09.321Z,94015.00
2023-03-06T09:37:09.436Z,94015.00
2023-03-06T09:41:09.255Z,94015.00
2023-03-06T09:45:09.605Z,94009.00
2023-03-06T09:49:09.421Z,94003.00
2023-03-06T09:53:09.418Z,94003.00
2023-03-06T09:57:09.427Z,93998.00
2023-03-06T10:01:09.930Z,93998.00
2023-03-06T10:05:09.609Z,93990.00
2023-03-06T10:09:09.929Z,93988.00
2023-03-06T10:13:09.631Z,93982.00
2023-03-06T10:17:09.642Z,93984.00
2023-03-06T10:21:19.128Z,93972.00
2023-03-06T10:25:10.700Z,93966.00
2023-03-06T10:29:09.952Z,93962.00
2023-03-06T10:33:09.628Z,93960.00
2023-03-06T10:37:09.930Z,93951.00
2023-03-06T10:41:09.941Z,93937.00
2023-03-06T10:45:10.490Z,93925.00
2023-03-06T10:49:10.428Z,93927.00
2023-03-06T10:53:10.328Z,93908.00
2023-03-06T10:57:10.334Z,93900.00
2023-03-06T11:01:10.969Z,93898.00
2023-03-06T11:05:10.395Z,93872.00
2023-03-06T11:09:10.439Z,93872.00
2023-03-06T11:13:10.429Z,93861.00
2023-03-06T11:17:10.457Z,93861.00
2023-03-06T11:21:10.493Z,93849.00
2023-03-06T11:25:10.474Z,93835.00
2023-03-06T11:29:10.551Z,93837.00
2023-03-06T11:33:10.488Z,93821.00
2023-03-06T11:37:10.968Z,93814.00
2023-03-06T11:41:10.504Z,93810.00
2023-03-06T11:45:10.953Z,93812.00
2023-03-06T11:49:10.600Z,93808.00
2023-03-06T11:53:10.996Z,93796.00
2023-03-06T11:57:10.841Z,93790.00
2023-03-06T12:01:10.828Z,93784.00
2023-03-06T12:05:10.880Z,93778.00
2023-03-06T12:09:10.843Z,93780.00
2023-03-06T12:13:11.003Z,93771.00
2023-03-06T12:17:11.464Z,93765.00
2023-03-06T12:21:11.145Z,93765.00
2023-03-06T12:25:11.305Z,93769.00
2023-03-06T12:29:11.617Z,93767.00
2023-03-06T12:33:11.176Z,93765.00
2023-03-06T12:37:11.489Z,93755.00
2023-03-06T12:41:11.509Z,93751.00
2023-03-06T12:45:11.011Z,93745.00
2023-03-06T12:49:12.391Z,93747.00
2023-03-06T12:53:10.903Z,93739.00
2023-03-06T12:57:10.883Z,93737.00
2023-03-06T13:01:10.824Z,93729.00
2023-03-06T13:05:10.767Z,93729.00
2023-03-06T13:09:10.716Z,93727.00
2023-03-06T13:13:10.664Z,93722.00
2023-03-06T13:17:10.638Z,93718.00
2023-03-06T13:21:10.572Z,93718.00
2023-03-06T13:25:11.004Z,93716.00
2023-03-06T13:29:10.428Z,93710.00
2023-03-06T13:33:10.393Z,93708.00
2023-03-06T13:37:10.497Z,93704.00
2023-03-06T13:41:10.227Z,93704.00
2023-03-06T13:45:10.207Z,93702.00
2023-03-06T13:49:10.141Z,93696.00
2023-03-06T13:53:10.101Z,93698.00
2023-03-06T13:57:10.151Z,93700.00
2023-03-06T14:01:10.267Z,93698.00
2023-03-06T14:05:10.220Z,93700.00
2023-03-06T14:09:10.253Z,93698.00
2023-03-06T14:13:10.404Z,93692.00
2023-03-06T14:17:10.515Z,93700.00
2023-03-06T14:21:10.607Z,93708.00
2023-03-06T14:25:10.555Z,93696.00
2023-03-06T14:29:10.506Z,93708.00
2023-03-06T14:33:10.434Z,93708.00
2023-03-06T14:37:10.353Z,93716.00
2023-03-06T14:41:11.779Z,93712.00
2023-03-06T14:45:10.234Z,93714.00
2023-03-06T14:49:10.325Z,93720.00
2023-03-06T14:53:10.146Z,93712.00
2023-03-06T14:57:10.056Z,93722.00
2023-03-06T15:01:10.000Z,93716.00
2023-03-06T15:05:10.057Z,93722.00
2023-03-06T15:09:09.881Z,93720.00
2023-03-06T15:13:09.833Z,93727.00
2023-03-06T15:17:10.045Z,93727.00
2023-03-06T15:21:09.766Z,93727.00
2023-03-06T15:25:10.061Z,93731.00
2023-03-06T15:29:10.344Z,93739.00
2023-03-06T15:33:09.518Z,93745.00
2023-03-06T15:37:09.486Z,93745.00
2023-03-06T15:41:09.381Z,93749.00
2023-03-06T15:45:09.339Z,93751.00
2023-03-06T15:49:09.255Z,93749.00
2023-03-06T15:53:09.227Z,93747.00
2023-03-06T15:57:09.163Z,93761.00
2023-03-06T16:01:09.100Z,93761.00
2023-03-06T16:05:08.984Z,93761.00
2023-03-06T16:09:08.955Z,93757.00
2023-03-06T16:13:08.855Z,93759.00
2023-03-06T16:17:08.856Z,93765.00
2023-03-06T16:21:08.858Z,93769.00
2023-03-06T16:25:08.937Z,93771.00
2023-03-06T16:29:09.043Z,93774.00
2023-03-06T16:33:09.125Z,93778.00
2023-03-06T16:37:09.207Z,93782.00
2023-03-06T16:41:09.283Z,93780.00
2023-03-06T16:45:09.391Z,93786.00
2023-03-06T16:49:09.436Z,93792.00
2023-03-06T16:53:09.537Z,93800.00
2023-03-06T16:57:09.555Z,93808.00
2023-03-06T17:01:10.089Z,93814.00
2023-03-06T17:05:09.649Z,93812.00
2023-03-06T17:09:09.675Z,93816.00
2023-03-06T17:13:09.738Z,93825.00
2023-03-06T17:17:09.864Z,93827.00
2023-03-06T17:21:09.926Z,93831.00
2023-03-06T17:25:10.038Z,93833.00
2023-03-06T17:29:10.085Z,93843.00
2023-03-06T17:33:10.160Z,93849.00
2023-03-06T17:37:10.298Z,93851.00
2023-03-06T17:41:10.322Z,93859.00
2023-03-06T17:45:10.425Z,93863.00
2023-03-06T17:49:10.537Z,93867.00
2023-03-06T17:53:10.607Z,93872.00
2023-03-06T17:57:10.780Z,93870.00
2023-03-06T18:01:10.848Z,93878.00
2023-03-06T18:05:10.991Z,93880.00
2023-03-06T18:09:11.208Z,93882.00
2023-03-06T18:13:11.183Z,93890.00
2023-03-06T18:17:11.316Z,93896.00
2023-03-06T18:21:11.415Z,93904.00
2023-03-06T18:25:11.524Z,93900.00
2023-03-06T18:29:11.659Z,93898.00
2023-03-06T18:33:11.803Z,93900.00
2023-03-06T18:37:11.883Z,93904.00
2023-03-06T18:41:12.041Z,93912.00
2023-03-06T18:45:12.131Z,93912.00
2023-03-06T18:49:12.241Z,93913.00
2023-03-06T18:53:12.405Z,93917.00
2023-03-06T18:57:12.532Z,93917.00
2023-03-06T19:01:12.755Z,93921.00
2023-03-06T19:05:12.855Z,93921.00
2023-03-06T19:09:12.987Z,93931.00
2023-03-06T19:13:13.136Z,93931.00
2023-03-06T19:17:13.287Z,93939.00
2023-03-06T19:21:13.416Z,93943.00
2023-03-06T19:25:13.585Z,93943.00
2023-03-06T19:29:13.742Z,93943.00
2023-03-06T19:33:13.923Z,93943.00
2023-03-06T19:37:14.093Z,93951.00
2023-03-06T19:41:14.281Z,93951.00
2023-03-06T19:45:14.502Z,93954.00
2023-03-06T19:49:14.642Z,93958.00
2023-03-06T19:53:14.817Z,93960.00
2023-03-06T19:57:15.031Z,93966.00
2023-03-06T20:01:15.216Z,93964.00
2023-03-06T20:05:15.389Z,93964.00
2023-03-06T20:09:15.543Z,93966.00
2023-03-06T20:13:15.700Z,93962.00
2023-03-06T20:17:15.904Z,93964.00
2023-03-06T20:21:16.092Z,93966.00
2023-03-06T20:25:16.280Z,93968.00
2023-03-06T20:29:16.430Z,93976.00
2023-03-06T20:33:16.636Z,93976.00
2023-03-06T20:37:16.835Z,93978.00
2023-03-06T20:41:17.028Z,93984.00
2023-03-06T20:45:17.219Z,93984.00
2023-03-06T20:49:17.412Z,93984.00
2023-03-06T20:53:17.608Z,93992.00
2023-03-06T20:57:17.813Z,93996.00
2023-03-06T21:01:18.029Z,93996.00
2023-03-06T21:05:18.193Z,93998.00
2023-03-06T21:09:18.403Z,93998.00
2023-03-06T21:13:18.632Z,93992.00
2023-03-06T21:17:18.782Z,93988.00
2023-03-06T21:21:18.998Z,93984.00
2023-03-06T21:25:19.206Z,93978.00
2023-03-06T21:29:19.421Z,93984.00
2023-03-06T21:33:19.625Z,93982.00
2023-03-06T21:37:19.813Z,93978.00
2023-03-06T21:41:20.059Z,93978.00
2023-03-06T21:45:20.321Z,93974.00
2023-03-06T21:49:20.584Z,93970.00
2023-03-06T21:53:20.858Z,93968.00
2023-03-06T21:57:20.880Z,93964.00
2023-03-06T22:01:20.965Z,93966.00
2023-03-06T22:05:20.939Z,93958.00
2023-03-06T22:09:20.971Z,93956.00
2023-03-06T22:13:20.997Z,93952.00
2023-03-06T22:17:21.023Z,93952.00
2023-03-06T22:21:21.047Z,93954.00
2023-03-06T22:25:21.031Z,93952.00
2023-03-06T22:29:21.070Z,93954.00
2023-03-06T22:33:21.089Z,93949.00
2023-03-06T22:37:21.119Z,93951.00
2023-03-06T22:41:21.182Z,93954.00
2023-03-06T22:45:21.448Z,93951.00
2023-03-06T22:49:21.709Z,93945.00
2023-03-06T22:53:21.919Z,93941.00
2023-03-06T22:57:22.174Z,93939.00
2023-03-06T23:01:22.509Z,93941.00
2023-03-06T23:05:22.682Z,93943.00
2023-03-06T23:09:22.904Z,93941.00
2023-03-06T23:13:23.130Z,93939.00
2023-03-06T23:17:23.397Z,93935.00
2023-03-06T23:21:23.648Z,93931.00
2023-03-06T23:25:23.914Z,93933.00
2023-03-06T23:29:24.143Z,93931.00
2023-03-06T23:33:24.409Z,93933.00
2023-03-06T23:37:24.673Z,93931.00
2023-03-06T23:41:24.919Z,93925.00
2023-03-06T23:45:25.136Z,93929.00
2023-03-06T23:49:25.408Z,93929.00
2023-03-06T23:53:25.655Z,93927.00
2023-03-06T23:57:25.929Z,93929.00
